sensor_id;sensor_type;location;lat;lon;timestamp;P1;durP1;ratioP1;P2;durP2;ratioP2
58657;SDS011;44428;45.630;13.786;2022-07-29T00:01:55;8.07;;;5.80;;
58657;SDS011;44428;45.630;13.786;2022-07-29T00:04:21;6.38;;;5.30;;
58657;SDS011;44428;45.630;13.786;2022-07-29T00:06:46;8.55;;;5.30;;
58657;SDS011;44428;45.630;13.786;2022-07-29T00:09:12;10.63;;;5.53;;
58657;SDS011;44428;45.630;13.786;2022-07-29T00:11:38;6.68;;;5.65;;
58657;SDS011;44428;45.630;13.786;2022-07-29T00:14:04;6.00;;;5.30;;
58657;SDS011;44428;45.630;13.786;2022-07-29T00:16:30;8.38;;;5.50;;
58657;SDS011;44428;45.630;13.786;2022-07-29T00:18:55;6.65;;;5.07;;
58657;SDS011;44428;45.630;13.786;2022-07-29T00:21:21;7.57;;;5.45;;
58657;SDS011;44428;45.630;13.786;2022-07-29T00:23:47;6.93;;;5.55;;
58657;SDS011;44428;45.630;13.786;2022-07-29T00:26:13;7.25;;;5.47;;
58657;SDS011;44428;45.630;13.786;2022-07-29T00:28:38;6.03;;;4.90;;
58657;SDS011;44428;45.630;13.786;2022-07-29T00:31:04;8.80;;;5.40;;
58657;SDS011;44428;45.630;13.786;2022-07-29T00:33:30;7.38;;;5.07;;
58657;SDS011;44428;45.630;13.786;2022-07-29T00:35:56;9.45;;;5.80;;
58657;SDS011;44428;45.630;13.786;2022-07-29T00:38:21;5.95;;;5.05;;
58657;SDS011;44428;45.630;13.786;2022-07-29T00:40:47;7.70;;;5.40;;
58657;SDS011;44428;45.630;13.786;2022-07-29T00:43:13;8.63;;;5.07;;
58657;SDS011;44428;45.630;13.786;2022-07-29T00:45:40;8.00;;;5.03;;
58657;SDS011;44428;45.630;13.786;2022-07-29T00:48:06;6.00;;;5.30;;
58657;SDS011;44428;45.630;13.786;2022-07-29T00:50:34;6.50;;;5.80;;
58657;SDS011;44428;45.630;13.786;2022-07-29T00:53:00;5.45;;;4.82;;
58657;SDS011;44428;45.630;13.786;2022-07-29T00:55:27;6.38;;;5.13;;
58657;SDS011;44428;45.630;13.786;2022-07-29T00:57:54;6.53;;;5.57;;
58657;SDS011;44428;45.630;13.786;2022-07-29T01:00:21;6.63;;;5.20;;
58657;SDS011;44428;45.630;13.786;2022-07-29T01:02:48;8.65;;;5.47;;
58657;SDS011;44428;45.630;13.786;2022-07-29T01:05:15;7.20;;;5.70;;
58657;SDS011;44428;45.630;13.786;2022-07-29T01:07:43;7.43;;;5.53;;
58657;SDS011;44428;45.630;13.786;2022-07-29T01:10:11;6.50;;;5.30;;
58657;SDS011;44428;45.630;13.786;2022-07-29T01:12:38;8.18;;;5.68;;
58657;SDS011;44428;45.630;13.786;2022-07-29T01:15:05;5.78;;;5.18;;
58657;SDS011;44428;45.630;13.786;2022-07-29T01:25:48;8.70;;;5.90;;
58657;SDS011;44428;45.630;13.786;2022-07-29T01:31:31;6.25;;;5.47;;
58657;SDS011;44428;45.630;13.786;2022-07-29T01:34:10;6.25;;;4.82;;
58657;SDS011;44428;45.630;13.786;2022-07-29T01:39:20;7.68;;;5.55;;
58657;SDS011;44428;45.630;13.786;2022-07-29T01:42:05;6.55;;;5.18;;
58657;SDS011;44428;45.630;13.786;2022-07-29T01:44:55;7.85;;;5.40;;
58657;SDS011;44428;45.630;13.786;2022-07-29T01:47:31;8.20;;;5.35;;
58657;SDS011;44428;45.630;13.786;2022-07-29T01:50:03;6.53;;;5.07;;
58657;SDS011;44428;45.630;13.786;2022-07-29T01:52:34;6.43;;;5.35;;
58657;SDS011;44428;45.630;13.786;2022-07-29T01:55:09;5.85;;;5.05;;
58657;SDS011;44428;45.630;13.786;2022-07-29T01:57:39;6.20;;;5.25;;
58657;SDS011;44428;45.630;13.786;2022-07-29T02:00:08;7.78;;;5.25;;
58657;SDS011;44428;45.630;13.786;2022-07-29T02:02:37;6.97;;;4.90;;
58657;SDS011;44428;45.630;13.786;2022-07-29T02:05:05;7.22;;;4.68;;
58657;SDS011;44428;45.630;13.786;2022-07-29T02:07:35;8.60;;;5.03;;
58657;SDS011;44428;45.630;13.786;2022-07-29T02:10:03;7.65;;;4.90;;
58657;SDS011;44428;45.630;13.786;2022-07-29T02:12:32;9.52;;;5.00;;
58657;SDS011;44428;45.630;13.786;2022-07-29T02:15:00;7.05;;;5.32;;
58657;SDS011;44428;45.630;13.786;2022-07-29T02:17:33;5.95;;;4.57;;
58657;SDS011;44428;45.630;13.786;2022-07-29T02:20:14;8.40;;;5.05;;
58657;SDS011;44428;45.630;13.786;2022-07-29T02:22:41;10.73;;;4.88;;
58657;SDS011;44428;45.630;13.786;2022-07-29T02:25:10;5.57;;;4.68;;
58657;SDS011;44428;45.630;13.786;2022-07-29T02:27:37;5.13;;;4.18;;
58657;SDS011;44428;45.630;13.786;2022-07-29T02:30:05;6.15;;;5.18;;
58657;SDS011;44428;45.630;13.786;2022-07-29T02:32:34;6.78;;;5.40;;
58657;SDS011;44428;45.630;13.786;2022-07-29T02:35:03;6.90;;;4.90;;
58657;SDS011;44428;45.630;13.786;2022-07-29T02:37:29;8.10;;;5.43;;
58657;SDS011;44428;45.630;13.786;2022-07-29T02:39:57;6.72;;;4.70;;
58657;SDS011;44428;45.630;13.786;2022-07-29T02:42:24;6.03;;;4.55;;
58657;SDS011;44428;45.630;13.786;2022-07-29T02:44:52;5.85;;;4.88;;
58657;SDS011;44428;45.630;13.786;2022-07-29T02:47:27;7.80;;;4.78;;
58657;SDS011;44428;45.630;13.786;2022-07-29T02:50:06;6.70;;;5.18;;
58657;SDS011;44428;45.630;13.786;2022-07-29T02:52:39;7.28;;;4.70;;
58657;SDS011;44428;45.630;13.786;2022-07-29T02:55:16;5.93;;;4.70;;
58657;SDS011;44428;45.630;13.786;2022-07-29T02:57:51;6.47;;;4.60;;
58657;SDS011;44428;45.630;13.786;2022-07-29T03:00:30;9.85;;;5.25;;
58657;SDS011;44428;45.630;13.786;2022-07-29T03:02:59;5.63;;;4.60;;
58657;SDS011;44428;45.630;13.786;2022-07-29T03:05:28;6.40;;;4.85;;
58657;SDS011;44428;45.630;13.786;2022-07-29T03:08:11;6.53;;;4.75;;
58657;SDS011;44428;45.630;13.786;2022-07-29T03:10:39;7.05;;;4.60;;
58657;SDS011;44428;45.630;13.786;2022-07-29T03:13:08;7.43;;;4.28;;
58657;SDS011;44428;45.630;13.786;2022-07-29T03:15:35;7.13;;;4.95;;
58657;SDS011;44428;45.630;13.786;2022-07-29T03:18:02;8.13;;;5.05;;
58657;SDS011;44428;45.630;13.786;2022-07-29T03:20:28;5.72;;;4.93;;
58657;SDS011;44428;45.630;13.786;2022-07-29T03:22:54;6.57;;;4.93;;
58657;SDS011;44428;45.630;13.786;2022-07-29T03:25:20;5.50;;;4.50;;
58657;SDS011;44428;45.630;13.786;2022-07-29T03:27:46;7.20;;;5.00;;
58657;SDS011;44428;45.630;13.786;2022-07-29T03:30:13;5.95;;;4.63;;
58657;SDS011;44428;45.630;13.786;2022-07-29T03:32:40;8.05;;;4.70;;
58657;SDS011;44428;45.630;13.786;2022-07-29T03:35:07;6.90;;;4.50;;
58657;SDS011;44428;45.630;13.786;2022-07-29T03:37:33;6.85;;;4.72;;
58657;SDS011;44428;45.630;13.786;2022-07-29T03:40:02;6.53;;;4.47;;
58657;SDS011;44428;45.630;13.786;2022-07-29T03:42:31;9.95;;;4.78;;
58657;SDS011;44428;45.630;13.786;2022-07-29T03:45:05;7.78;;;4.57;;
58657;SDS011;44428;45.630;13.786;2022-07-29T03:47:35;7.75;;;4.53;;
58657;SDS011;44428;45.630;13.786;2022-07-29T03:50:07;6.18;;;4.68;;
58657;SDS011;44428;45.630;13.786;2022-07-29T03:52:35;6.10;;;4.80;;
58657;SDS011;44428;45.630;13.786;2022-07-29T03:55:02;6.07;;;4.20;;
58657;SDS011;44428;45.630;13.786;2022-07-29T03:57:28;5.78;;;4.53;;
58657;SDS011;44428;45.630;13.786;2022-07-29T03:59:57;5.88;;;4.38;;
58657;SDS011;44428;45.630;13.786;2022-07-29T04:02:23;6.82;;;4.85;;
58657;SDS011;44428;45.630;13.786;2022-07-29T04:04:51;7.10;;;4.35;;
58657;SDS011;44428;45.630;13.786;2022-07-29T04:07:16;5.70;;;4.13;;
58657;SDS011;44428;45.630;13.786;2022-07-29T04:09:42;6.28;;;4.30;;
58657;SDS011;44428;45.630;13.786;2022-07-29T04:12:08;8.52;;;4.78;;
58657;SDS011;44428;45.630;13.786;2022-07-29T04:14:35;5.90;;;4.53;;
58657;SDS011;44428;45.630;13.786;2022-07-29T04:17:01;6.93;;;4.38;;
58657;SDS011;44428;45.630;13.786;2022-07-29T04:19:28;9.38;;;4.57;;
58657;SDS011;44428;45.630;13.786;2022-07-29T04:21:54;6.65;;;4.38;;
58657;SDS011;44428;45.630;13.786;2022-07-29T04:24:20;10.18;;;4.10;;
58657;SDS011;44428;45.630;13.786;2022-07-29T04:26:46;6.45;;;4.80;;
58657;SDS011;44428;45.630;13.786;2022-07-29T04:29:12;6.38;;;4.57;;
58657;SDS011;44428;45.630;13.786;2022-07-29T04:31:39;7.03;;;4.63;;
58657;SDS011;44428;45.630;13.786;2022-07-29T04:34:08;6.28;;;4.40;;
58657;SDS011;44428;45.630;13.786;2022-07-29T04:36:34;6.60;;;4.25;;
58657;SDS011;44428;45.630;13.786;2022-07-29T04:39:00;8.85;;;4.40;;
58657;SDS011;44428;45.630;13.786;2022-07-29T04:41:26;6.53;;;3.97;;
58657;SDS011;44428;45.630;13.786;2022-07-29T04:43:56;8.25;;;4.20;;
58657;SDS011;44428;45.630;13.786;2022-07-29T04:46:22;6.07;;;4.00;;
58657;SDS011;44428;45.630;13.786;2022-07-29T04:48:48;6.15;;;4.45;;
58657;SDS011;44428;45.630;13.786;2022-07-29T04:51:14;5.75;;;4.05;;
58657;SDS011;44428;45.630;13.786;2022-07-29T04:53:40;6.00;;;4.40;;
58657;SDS011;44428;45.630;13.786;2022-07-29T04:56:06;8.82;;;4.28;;
58657;SDS011;44428;45.630;13.786;2022-07-29T04:58:35;8.88;;;4.50;;
58657;SDS011;44428;45.630;13.786;2022-07-29T05:01:01;7.15;;;5.32;;
58657;SDS011;44428;45.630;13.786;2022-07-29T05:03:27;7.70;;;4.25;;
58657;SDS011;44428;45.630;13.786;2022-07-29T05:05:53;7.57;;;4.50;;
58657;SDS011;44428;45.630;13.786;2022-07-29T05:08:19;5.22;;;3.65;;
58657;SDS011;44428;45.630;13.786;2022-07-29T05:10:45;6.85;;;4.25;;
58657;SDS011;44428;45.630;13.786;2022-07-29T05:13:11;6.45;;;4.82;;
58657;SDS011;44428;45.630;13.786;2022-07-29T05:15:37;5.85;;;4.20;;
58657;SDS011;44428;45.630;13.786;2022-07-29T05:18:03;5.93;;;4.03;;
58657;SDS011;44428;45.630;13.786;2022-07-29T05:20:29;5.78;;;4.03;;
58657;SDS011;44428;45.630;13.786;2022-07-29T05:22:56;6.22;;;4.65;;
58657;SDS011;44428;45.630;13.786;2022-07-29T05:25:27;8.10;;;4.28;;
58657;SDS011;44428;45.630;13.786;2022-07-29T05:27:53;8.60;;;4.43;;
58657;SDS011;44428;45.630;13.786;2022-07-29T05:30:20;7.10;;;4.20;;
58657;SDS011;44428;45.630;13.786;2022-07-29T05:32:46;7.47;;;4.75;;
58657;SDS011;44428;45.630;13.786;2022-07-29T05:35:12;7.60;;;4.80;;
58657;SDS011;44428;45.630;13.786;2022-07-29T05:37:39;7.55;;;4.47;;
58657;SDS011;44428;45.630;13.786;2022-07-29T05:40:05;7.78;;;4.55;;
58657;SDS011;44428;45.630;13.786;2022-07-29T05:42:31;6.57;;;4.13;;
58657;SDS011;44428;45.630;13.786;2022-07-29T05:44:57;6.57;;;4.63;;
58657;SDS011;44428;45.630;13.786;2022-07-29T05:47:23;7.97;;;4.53;;
58657;SDS011;44428;45.630;13.786;2022-07-29T05:49:49;5.65;;;4.13;;
58657;SDS011;44428;45.630;13.786;2022-07-29T05:52:16;5.45;;;4.05;;
58657;SDS011;44428;45.630;13.786;2022-07-29T05:54:42;6.72;;;4.10;;
58657;SDS011;44428;45.630;13.786;2022-07-29T05:57:08;6.25;;;3.55;;
58657;SDS011;44428;45.630;13.786;2022-07-29T05:59:40;6.22;;;4.03;;
58657;SDS011;44428;45.630;13.786;2022-07-29T06:02:07;6.22;;;3.80;;
58657;SDS011;44428;45.630;13.786;2022-07-29T06:04:32;5.88;;;3.90;;
58657;SDS011;44428;45.630;13.786;2022-07-29T06:06:58;7.30;;;4.22;;
58657;SDS011;44428;45.630;13.786;2022-07-29T06:09:24;5.97;;;3.70;;
58657;SDS011;44428;45.630;13.786;2022-07-29T06:11:51;6.10;;;3.80;;
58657;SDS011;44428;45.630;13.786;2022-07-29T06:14:17;7.10;;;4.00;;
58657;SDS011;44428;45.630;13.786;2022-07-29T06:16:43;5.85;;;3.70;;
58657;SDS011;44428;45.630;13.786;2022-07-29T06:19:09;9.00;;;4.60;;
58657;SDS011;44428;45.630;13.786;2022-07-29T06:21:35;9.23;;;4.10;;
58657;SDS011;44428;45.630;13.786;2022-07-29T06:24:01;7.32;;;3.80;;
58657;SDS011;44428;45.630;13.786;2022-07-29T06:26:27;7.20;;;3.65;;
58657;SDS011;44428;45.630;13.786;2022-07-29T06:28:53;5.13;;;3.47;;
58657;SDS011;44428;45.630;13.786;2022-07-29T06:31:18;6.28;;;3.85;;
58657;SDS011;44428;45.630;13.786;2022-07-29T06:33:44;6.68;;;3.80;;
58657;SDS011;44428;45.630;13.786;2022-07-29T06:36:10;8.70;;;3.90;;
58657;SDS011;44428;45.630;13.786;2022-07-29T06:38:35;4.97;;;3.65;;
58657;SDS011;44428;45.630;13.786;2022-07-29T06:41:03;6.22;;;3.58;;
58657;SDS011;44428;45.630;13.786;2022-07-29T06:43:40;6.55;;;4.28;;
58657;SDS011;44428;45.630;13.786;2022-07-29T06:46:12;7.50;;;4.22;;
58657;SDS011;44428;45.630;13.786;2022-07-29T06:48:42;5.60;;;3.97;;
58657;SDS011;44428;45.630;13.786;2022-07-29T06:51:09;11.50;;;4.63;;
58657;SDS011;44428;45.630;13.786;2022-07-29T06:53:37;10.52;;;4.53;;
58657;SDS011;44428;45.630;13.786;2022-07-29T06:56:03;8.00;;;4.80;;
58657;SDS011;44428;45.630;13.786;2022-07-29T06:58:30;8.65;;;4.93;;
58657;SDS011;44428;45.630;13.786;2022-07-29T07:00:57;6.82;;;4.22;;
58657;SDS011;44428;45.630;13.786;2022-07-29T07:03:24;9.02;;;4.00;;
58657;SDS011;44428;45.630;13.786;2022-07-29T07:05:51;6.72;;;3.88;;
58657;SDS011;44428;45.630;13.786;2022-07-29T07:08:18;6.85;;;3.92;;
58657;SDS011;44428;45.630;13.786;2022-07-29T07:10:44;9.95;;;4.10;;
58657;SDS011;44428;45.630;13.786;2022-07-29T07:13:11;8.50;;;4.10;;
58657;SDS011;44428;45.630;13.786;2022-07-29T07:15:37;6.55;;;4.05;;
58657;SDS011;44428;45.630;13.786;2022-07-29T07:18:03;7.97;;;4.00;;
58657;SDS011;44428;45.630;13.786;2022-07-29T07:20:31;7.88;;;4.22;;
58657;SDS011;44428;45.630;13.786;2022-07-29T07:22:57;6.18;;;4.35;;
58657;SDS011;44428;45.630;13.786;2022-07-29T07:25:23;6.93;;;3.92;;
58657;SDS011;44428;45.630;13.786;2022-07-29T07:27:49;7.03;;;4.28;;
58657;SDS011;44428;45.630;13.786;2022-07-29T07:30:15;6.32;;;4.18;;
58657;SDS011;44428;45.630;13.786;2022-07-29T07:32:41;6.40;;;4.18;;
58657;SDS011;44428;45.630;13.786;2022-07-29T07:35:08;10.48;;;4.68;;
58657;SDS011;44428;45.630;13.786;2022-07-29T07:37:34;7.28;;;4.75;;
58657;SDS011;44428;45.630;13.786;2022-07-29T07:40:00;9.77;;;4.68;;
58657;SDS011;44428;45.630;13.786;2022-07-29T07:42:26;6.53;;;3.67;;
58657;SDS011;44428;45.630;13.786;2022-07-29T07:44:52;7.18;;;4.30;;
58657;SDS011;44428;45.630;13.786;2022-07-29T07:47:18;8.93;;;4.30;;
58657;SDS011;44428;45.630;13.786;2022-07-29T07:49:45;5.82;;;4.22;;
58657;SDS011;44428;45.630;13.786;2022-07-29T07:52:12;6.00;;;4.53;;
58657;SDS011;44428;45.630;13.786;2022-07-29T07:54:39;9.93;;;4.10;;
58657;SDS011;44428;45.630;13.786;2022-07-29T07:57:04;7.70;;;4.45;;
58657;SDS011;44428;45.630;13.786;2022-07-29T07:59:30;7.57;;;4.43;;
58657;SDS011;44428;45.630;13.786;2022-07-29T08:01:56;6.25;;;4.63;;
58657;SDS011;44428;45.630;13.786;2022-07-29T08:04:22;7.65;;;4.55;;
58657;SDS011;44428;45.630;13.786;2022-07-29T08:06:48;9.73;;;4.20;;
58657;SDS011;44428;45.630;13.786;2022-07-29T08:09:16;7.60;;;4.35;;
58657;SDS011;44428;45.630;13.786;2022-07-29T08:11:41;8.40;;;3.78;;
58657;SDS011;44428;45.630;13.786;2022-07-29T08:14:07;6.32;;;4.45;;
58657;SDS011;44428;45.630;13.786;2022-07-29T08:16:33;14.30;;;4.60;;
58657;SDS011;44428;45.630;13.786;2022-07-29T08:18:59;9.10;;;4.20;;
58657;SDS011;44428;45.630;13.786;2022-07-29T08:21:24;5.45;;;4.20;;
58657;SDS011;44428;45.630;13.786;2022-07-29T08:23:50;7.78;;;4.25;;
58657;SDS011;44428;45.630;13.786;2022-07-29T08:26:40;6.53;;;4.40;;
58657;SDS011;44428;45.630;13.786;2022-07-29T08:29:06;8.77;;;4.50;;
58657;SDS011;44428;45.630;13.786;2022-07-29T08:31:32;5.82;;;4.65;;
58657;SDS011;44428;45.630;13.786;2022-07-29T08:33:57;8.27;;;4.53;;
58657;SDS011;44428;45.630;13.786;2022-07-29T08:36:25;7.38;;;4.35;;
58657;SDS011;44428;45.630;13.786;2022-07-29T08:38:51;6.20;;;5.13;;
58657;SDS011;44428;45.630;13.786;2022-07-29T08:41:18;7.40;;;5.10;;
58657;SDS011;44428;45.630;13.786;2022-07-29T08:43:44;6.72;;;4.50;;
58657;SDS011;44428;45.630;13.786;2022-07-29T08:46:11;8.05;;;4.40;;
58657;SDS011;44428;45.630;13.786;2022-07-29T08:48:36;7.53;;;4.85;;
58657;SDS011;44428;45.630;13.786;2022-07-29T08:51:04;9.07;;;4.60;;
58657;SDS011;44428;45.630;13.786;2022-07-29T08:53:32;7.05;;;4.60;;
58657;SDS011;44428;45.630;13.786;2022-07-29T08:55:58;4.90;;;3.88;;
58657;SDS011;44428;45.630;13.786;2022-07-29T08:58:25;7.38;;;4.35;;
58657;SDS011;44428;45.630;13.786;2022-07-29T09:00:52;7.03;;;4.63;;
58657;SDS011;44428;45.630;13.786;2022-07-29T09:03:23;6.88;;;4.13;;
58657;SDS011;44428;45.630;13.786;2022-07-29T09:05:50;7.28;;;4.50;;
58657;SDS011;44428;45.630;13.786;2022-07-29T09:08:17;8.80;;;4.65;;
58657;SDS011;44428;45.630;13.786;2022-07-29T09:10:43;10.13;;;4.72;;
58657;SDS011;44428;45.630;13.786;2022-07-29T09:13:09;6.93;;;4.43;;
58657;SDS011;44428;45.630;13.786;2022-07-29T09:15:35;6.28;;;4.88;;
58657;SDS011;44428;45.630;13.786;2022-07-29T09:18:01;6.65;;;5.22;;
58657;SDS011;44428;45.630;13.786;2022-07-29T09:20:27;8.52;;;4.78;;
58657;SDS011;44428;45.630;13.786;2022-07-29T09:23:13;7.32;;;4.97;;
58657;SDS011;44428;45.630;13.786;2022-07-29T09:25:40;7.07;;;4.70;;
58657;SDS011;44428;45.630;13.786;2022-07-29T09:28:10;6.38;;;4.78;;
58657;SDS011;44428;45.630;13.786;2022-07-29T09:30:59;8.82;;;5.05;;
58657;SDS011;44428;45.630;13.786;2022-07-29T09:33:30;6.68;;;5.00;;
58657;SDS011;44428;45.630;13.786;2022-07-29T09:36:06;7.35;;;4.95;;
58657;SDS011;44428;45.630;13.786;2022-07-29T09:38:34;7.65;;;5.10;;
58657;SDS011;44428;45.630;13.786;2022-07-29T09:41:01;7.38;;;4.95;;
58657;SDS011;44428;45.630;13.786;2022-07-29T09:43:28;8.25;;;5.10;;
58657;SDS011;44428;45.630;13.786;2022-07-29T09:45:54;7.82;;;5.07;;
58657;SDS011;44428;45.630;13.786;2022-07-29T09:48:21;6.68;;;4.82;;
58657;SDS011;44428;45.630;13.786;2022-07-29T09:50:48;7.40;;;4.90;;
58657;SDS011;44428;45.630;13.786;2022-07-29T09:53:57;7.70;;;4.57;;
58657;SDS011;44428;45.630;13.786;2022-07-29T09:56:05;8.77;;;4.80;;
58657;SDS011;44428;45.630;13.786;2022-07-29T09:58:31;9.38;;;5.10;;
58657;SDS011;44428;45.630;13.786;2022-07-29T10:01:00;6.10;;;3.90;;
58657;SDS011;44428;45.630;13.786;2022-07-29T10:03:26;7.78;;;4.60;;
58657;SDS011;44428;45.630;13.786;2022-07-29T10:06:10;8.13;;;5.03;;
58657;SDS011;44428;45.630;13.786;2022-07-29T10:08:38;6.18;;;4.45;;
58657;SDS011;44428;45.630;13.786;2022-07-29T10:13:40;7.93;;;4.53;;
58657;SDS011;44428;45.630;13.786;2022-07-29T10:16:07;5.80;;;4.10;;
58657;SDS011;44428;45.630;13.786;2022-07-29T10:18:33;6.15;;;5.10;;
58657;SDS011;44428;45.630;13.786;2022-07-29T10:20:59;5.88;;;4.55;;
58657;SDS011;44428;45.630;13.786;2022-07-29T10:23:27;8.10;;;5.47;;
58657;SDS011;44428;45.630;13.786;2022-07-29T10:25:54;6.18;;;4.68;;
58657;SDS011;44428;45.630;13.786;2022-07-29T10:28:21;5.60;;;4.22;;
58657;SDS011;44428;45.630;13.786;2022-07-29T10:30:46;6.50;;;4.78;;
58657;SDS011;44428;45.630;13.786;2022-07-29T10:33:18;5.70;;;4.87;;
58657;SDS011;44428;45.630;13.786;2022-07-29T10:41:59;5.65;;;4.80;;
58657;SDS011;44428;45.630;13.786;2022-07-29T10:44:33;7.13;;;4.70;;
58657;SDS011;44428;45.630;13.786;2022-07-29T10:46:59;7.50;;;5.47;;
58657;SDS011;44428;45.630;13.786;2022-07-29T10:49:26;7.97;;;4.47;;
58657;SDS011;44428;45.630;13.786;2022-07-29T10:54:18;6.90;;;4.78;;
58657;SDS011;44428;45.630;13.786;2022-07-29T10:59:48;9.68;;;4.95;;
58657;SDS011;44428;45.630;13.786;2022-07-29T11:05:12;12.00;;;5.30;;
58657;SDS011;44428;45.630;13.786;2022-07-29T11:08:16;7.88;;;4.85;;
58657;SDS011;44428;45.630;13.786;2022-07-29T11:10:38;6.75;;;4.60;;
58657;SDS011;44428;45.630;13.786;2022-07-29T11:13:04;6.95;;;4.60;;
58657;SDS011;44428;45.630;13.786;2022-07-29T11:15:32;5.72;;;4.90;;
58657;SDS011;44428;45.630;13.786;2022-07-29T11:18:22;6.88;;;5.05;;
58657;SDS011;44428;45.630;13.786;2022-07-29T11:20:49;7.80;;;4.75;;
58657;SDS011;44428;45.630;13.786;2022-07-29T11:23:23;9.25;;;5.10;;
58657;SDS011;44428;45.630;13.786;2022-07-29T11:31:34;6.50;;;4.45;;
58657;SDS011;44428;45.630;13.786;2022-07-29T11:34:21;5.85;;;4.68;;
58657;SDS011;44428;45.630;13.786;2022-07-29T11:39:32;7.28;;;4.80;;
58657;SDS011;44428;45.630;13.786;2022-07-29T11:47:26;5.90;;;4.97;;
58657;SDS011;44428;45.630;13.786;2022-07-29T11:49:53;8.88;;;5.05;;
58657;SDS011;44428;45.630;13.786;2022-07-29T11:52:21;6.03;;;4.57;;
58657;SDS011;44428;45.630;13.786;2022-07-29T11:54:47;6.47;;;4.47;;
58657;SDS011;44428;45.630;13.786;2022-07-29T11:57:18;6.38;;;4.43;;
58657;SDS011;44428;45.630;13.786;2022-07-29T11:59:45;7.78;;;4.95;;
58657;SDS011;44428;45.630;13.786;2022-07-29T12:02:13;6.93;;;4.90;;
58657;SDS011;44428;45.630;13.786;2022-07-29T12:04:53;6.18;;;4.63;;
58657;SDS011;44428;45.630;13.786;2022-07-29T12:07:30;7.18;;;4.38;;
58657;SDS011;44428;45.630;13.786;2022-07-29T12:09:57;8.40;;;4.68;;
58657;SDS011;44428;45.630;13.786;2022-07-29T12:12:23;6.05;;;4.22;;
58657;SDS011;44428;45.630;13.786;2022-07-29T12:14:49;6.68;;;4.45;;
58657;SDS011;44428;45.630;13.786;2022-07-29T12:17:28;8.85;;;4.97;;
58657;SDS011;44428;45.630;13.786;2022-07-29T12:19:56;6.20;;;4.50;;
58657;SDS011;44428;45.630;13.786;2022-07-29T12:22:30;6.03;;;4.53;;
58657;SDS011;44428;45.630;13.786;2022-07-29T12:25:06;7.63;;;4.40;;
58657;SDS011;44428;45.630;13.786;2022-07-29T12:27:35;6.18;;;4.60;;
58657;SDS011;44428;45.630;13.786;2022-07-29T12:30:09;9.32;;;4.70;;
58657;SDS011;44428;45.630;13.786;2022-07-29T12:32:40;7.13;;;4.38;;
58657;SDS011;44428;45.630;13.786;2022-07-29T12:35:09;7.13;;;5.28;;
58657;SDS011;44428;45.630;13.786;2022-07-29T12:37:39;6.03;;;4.88;;
58657;SDS011;44428;45.630;13.786;2022-07-29T12:40:07;6.57;;;4.53;;
58657;SDS011;44428;45.630;13.786;2022-07-29T12:42:34;7.03;;;5.00;;
58657;SDS011;44428;45.630;13.786;2022-07-29T12:45:00;6.47;;;5.10;;
58657;SDS011;44428;45.630;13.786;2022-07-29T12:47:27;7.20;;;5.38;;
58657;SDS011;44428;45.630;13.786;2022-07-29T12:50:09;6.85;;;4.50;;
58657;SDS011;44428;45.630;13.786;2022-07-29T12:52:43;6.35;;;4.65;;
58657;SDS011;44428;45.630;13.786;2022-07-29T12:55:10;6.78;;;4.57;;
58657;SDS011;44428;45.630;13.786;2022-07-29T12:57:46;8.38;;;4.75;;
58657;SDS011;44428;45.630;13.786;2022-07-29T13:00:14;6.72;;;4.40;;
58657;SDS011;44428;45.630;13.786;2022-07-29T13:02:40;6.78;;;4.47;;
58657;SDS011;44428;45.630;13.786;2022-07-29T13:05:08;6.88;;;4.57;;
58657;SDS011;44428;45.630;13.786;2022-07-29T13:07:35;7.20;;;4.30;;
58657;SDS011;44428;45.630;13.786;2022-07-29T13:15:37;6.20;;;4.47;;
58657;SDS011;44428;45.630;13.786;2022-07-29T13:18:32;5.50;;;4.20;;
58657;SDS011;44428;45.630;13.786;2022-07-29T13:21:10;6.28;;;4.53;;
58657;SDS011;44428;45.630;13.786;2022-07-29T13:23:40;7.68;;;4.60;;
58657;SDS011;44428;45.630;13.786;2022-07-29T13:26:10;6.60;;;4.50;;
58657;SDS011;44428;45.630;13.786;2022-07-29T13:28:41;7.88;;;4.40;;
58657;SDS011;44428;45.630;13.786;2022-07-29T13:31:07;8.27;;;4.95;;
58657;SDS011;44428;45.630;13.786;2022-07-29T13:33:32;7.85;;;4.57;;
58657;SDS011;44428;45.630;13.786;2022-07-29T13:35:58;9.15;;;4.75;;
58657;SDS011;44428;45.630;13.786;2022-07-29T13:38:24;6.40;;;4.28;;
58657;SDS011;44428;45.630;13.786;2022-07-29T13:40:50;6.25;;;4.50;;
58657;SDS011;44428;45.630;13.786;2022-07-29T13:43:16;6.97;;;4.50;;
58657;SDS011;44428;45.630;13.786;2022-07-29T13:45:41;6.53;;;4.45;;
58657;SDS011;44428;45.630;13.786;2022-07-29T13:48:07;9.50;;;5.05;;
58657;SDS011;44428;45.630;13.786;2022-07-29T13:50:33;9.48;;;4.45;;
58657;SDS011;44428;45.630;13.786;2022-07-29T13:52:58;5.78;;;4.30;;
58657;SDS011;44428;45.630;13.786;2022-07-29T13:55:24;6.00;;;4.50;;
58657;SDS011;44428;45.630;13.786;2022-07-29T13:57:50;8.30;;;4.80;;
58657;SDS011;44428;45.630;13.786;2022-07-29T14:00:15;8.48;;;4.78;;
58657;SDS011;44428;45.630;13.786;2022-07-29T14:02:41;5.70;;;4.32;;
58657;SDS011;44428;45.630;13.786;2022-07-29T14:05:07;7.47;;;4.38;;
58657;SDS011;44428;45.630;13.786;2022-07-29T14:07:35;6.93;;;4.25;;
58657;SDS011;44428;45.630;13.786;2022-07-29T14:10:04;6.07;;;4.60;;
58657;SDS011;44428;45.630;13.786;2022-07-29T14:12:31;6.95;;;4.50;;
58657;SDS011;44428;45.630;13.786;2022-07-29T14:14:56;5.28;;;3.75;;
58657;SDS011;44428;45.630;13.786;2022-07-29T14:17:22;7.13;;;4.28;;
58657;SDS011;44428;45.630;13.786;2022-07-29T14:19:48;8.00;;;4.13;;
58657;SDS011;44428;45.630;13.786;2022-07-29T14:22:14;7.90;;;4.18;;
58657;SDS011;44428;45.630;13.786;2022-07-29T14:24:40;6.35;;;3.92;;
58657;SDS011;44428;45.630;13.786;2022-07-29T14:27:06;7.35;;;4.15;;
58657;SDS011;44428;45.630;13.786;2022-07-29T14:29:33;4.97;;;3.45;;
58657;SDS011;44428;45.630;13.786;2022-07-29T14:31:59;5.15;;;3.42;;
58657;SDS011;44428;45.630;13.786;2022-07-29T14:34:25;6.90;;;3.80;;
58657;SDS011;44428;45.630;13.786;2022-07-29T14:36:50;5.03;;;3.22;;
58657;SDS011;44428;45.630;13.786;2022-07-29T14:39:16;6.70;;;3.80;;
58657;SDS011;44428;45.630;13.786;2022-07-29T14:41:42;6.38;;;3.38;;
58657;SDS011;44428;45.630;13.786;2022-07-29T14:44:08;5.40;;;3.08;;
58657;SDS011;44428;45.630;13.786;2022-07-29T14:46:34;5.75;;;3.00;;
58657;SDS011;44428;45.630;13.786;2022-07-29T14:49:00;4.43;;;2.88;;
58657;SDS011;44428;45.630;13.786;2022-07-29T14:51:26;5.82;;;2.72;;
58657;SDS011;44428;45.630;13.786;2022-07-29T14:53:52;5.78;;;3.30;;
58657;SDS011;44428;45.630;13.786;2022-07-29T14:56:18;4.85;;;3.60;;
58657;SDS011;44428;45.630;13.786;2022-07-29T14:58:43;5.28;;;3.28;;
58657;SDS011;44428;45.630;13.786;2022-07-29T15:01:09;5.78;;;3.45;;
58657;SDS011;44428;45.630;13.786;2022-07-29T15:03:35;5.25;;;3.47;;
58657;SDS011;44428;45.630;13.786;2022-07-29T15:06:00;4.07;;;2.95;;
58657;SDS011;44428;45.630;13.786;2022-07-29T15:08:26;5.53;;;2.80;;
58657;SDS011;44428;45.630;13.786;2022-07-29T15:10:55;5.07;;;3.00;;
58657;SDS011;44428;45.630;13.786;2022-07-29T15:13:22;4.18;;;2.92;;
58657;SDS011;44428;45.630;13.786;2022-07-29T15:15:48;6.38;;;2.75;;
58657;SDS011;44428;45.630;13.786;2022-07-29T15:18:15;3.90;;;2.40;;
58657;SDS011;44428;45.630;13.786;2022-07-29T15:20:40;4.35;;;2.10;;
58657;SDS011;44428;45.630;13.786;2022-07-29T15:23:06;4.72;;;2.35;;
58657;SDS011;44428;45.630;13.786;2022-07-29T15:25:34;4.72;;;2.60;;
58657;SDS011;44428;45.630;13.786;2022-07-29T15:28:01;5.25;;;2.42;;
58657;SDS011;44428;45.630;13.786;2022-07-29T15:30:29;3.25;;;2.15;;